createdAt,value
2022-08-08T00:02:03.979Z,1.00
2022-08-08T00:05:11.588Z,1.02
2022-08-08T00:08:31.861Z,1.50
2022-08-08T00:11:46.770Z,1.20
2022-08-08T00:15:57.103Z,1.00
2022-08-08T00:19:27.932Z,1.45
2022-08-08T00:22:39.780Z,1.12
2022-08-08T00:25:51.171Z,1.05
2022-08-08T00:29:02.881Z,1.15
2022-08-08T00:32:36.146Z,1.30
2022-08-08T00:35:48.939Z,1.20
2022-08-08T00:40:43.813Z,1.08
2022-08-08T00:42:41.822Z,1.20
2022-08-08T00:46:03.864Z,1.35
2022-08-08T00:49:58.931Z,1.00
2022-08-08T00:53:20.826Z,1.10
2022-08-08T00:57:02.871Z,1.10
2022-08-08T01:00:13.362Z,1.27
2022-08-08T01:04:02.598Z,1.10
2022-08-08T01:07:55.835Z,1.30
2022-08-08T01:11:14.855Z,1.45
2022-08-08T01:15:08.426Z,1.35
2022-08-08T01:18:58.790Z,1.10
2022-08-08T01:22:35.325Z,1.15
2022-08-08T01:26:17.548Z,1.00
2022-08-08T01:29:59.846Z,0.93
2022-08-08T01:33:43.134Z,0.95
2022-08-08T01:37:57.922Z,1.30
2022-08-08T01:41:01.300Z,1.00
2022-08-08T01:44:53.171Z,1.10
2022-08-08T01:48:23.309Z,1.12
2022-08-08T01:52:42.057Z,1.10
2022-08-08T01:55:19.035Z,1.20
2022-08-08T01:58:46.256Z,1.15
2022-08-08T02:02:34.214Z,1.20
2022-08-08T02:06:31.726Z,1.10
2022-08-08T02:10:29.401Z,1.10
2022-08-08T02:14:12.217Z,1.20
2022-08-08T02:17:26.880Z,1.30
2022-08-08T02:21:18.191Z,1.15
2022-08-08T02:24:29.254Z,1.45
2022-08-08T02:27:56.205Z,1.33
2022-08-08T02:31:43.508Z,1.30
2022-08-08T02:35:08.907Z,1.25
2022-08-08T02:38:48.994Z,1.10
2022-08-08T02:42:38.246Z,1.27
2022-08-08T02:46:14.744Z,1.27
2022-08-08T02:49:50.746Z,1.20
2022-08-08T02:53:01.109Z,1.33
2022-08-08T02:56:48.641Z,1.10
2022-08-08T03:05:02.895Z,1.00
2022-08-08T03:07:24.288Z,1.23
2022-08-08T03:10:53.821Z,1.45
2022-08-08T03:16:00.294Z,1.40
2022-08-08T03:18:31.391Z,1.12
2022-08-08T03:21:54.892Z,1.40
2022-08-08T03:25:00.790Z,1.30
2022-08-08T03:28:43.407Z,1.42
2022-08-08T03:32:08.605Z,1.50
2022-08-08T03:35:12.097Z,1.33
2022-08-08T03:38:54.352Z,1.48
2022-08-08T03:42:26.495Z,1.05
2022-08-08T03:46:03.322Z,1.17
2022-08-08T03:49:30.074Z,1.37
2022-08-08T03:52:04.822Z,1.42
2022-08-08T03:55:54.943Z,1.30
2022-08-08T03:58:41.461Z,1.20
2022-08-08T04:02:32.829Z,1.45
2022-08-08T04:05:14.682Z,1.52
2022-08-08T04:08:33.579Z,1.58
2022-08-08T04:11:58.015Z,1.30
2022-08-08T04:15:04.915Z,1.52
2022-08-08T04:18:09.452Z,1.35
2022-08-08T04:21:23.081Z,1.45
2022-08-08T04:24:29.812Z,1.70
2022-08-08T04:28:02.936Z,1.20
2022-08-08T04:31:01.120Z,1.35
2022-08-08T04:34:07.911Z,1.80
2022-08-08T04:37:12.451Z,1.50
2022-08-08T04:40:15.968Z,1.60
2022-08-08T04:43:22.211Z,1.60
2022-08-08T04:46:25.322Z,1.35
2022-08-08T04:49:58.565Z,1.50
2022-08-08T04:53:00.696Z,1.60
2022-08-08T04:56:07.804Z,1.50
2022-08-08T04:59:10.814Z,1.27
2022-08-08T05:02:14.466Z,1.30
2022-08-08T05:05:20.464Z,1.20
2022-08-08T05:08:43.257Z,1.15
2022-08-08T05:11:56.560Z,1.17
2022-08-08T05:15:00.449Z,1.30
2022-08-08T05:18:09.153Z,1.20
2022-08-08T05:21:14.503Z,1.40
2022-08-08T05:24:22.808Z,2.30
2022-08-08T05:27:33.206Z,1.30
2022-08-08T05:30:38.491Z,1.10
2022-08-08T05:33:50.954Z,1.30
2022-08-08T05:36:56.498Z,1.10
2022-08-08T05:40:05.584Z,1.48
2022-08-08T05:43:38.701Z,1.12
2022-08-08T05:46:35.855Z,1.30
2022-08-08T05:49:54.424Z,1.30
2022-08-08T05:53:53.839Z,1.20
2022-08-08T05:56:23.284Z,1.35
2022-08-08T06:00:01.114Z,1.10
2022-08-08T06:03:17.297Z,1.00
2022-08-08T06:06:32.649Z,1.10
2022-08-08T06:10:00.168Z,0.90
2022-08-08T06:13:02.964Z,0.90
2022-08-08T06:16:10.262Z,0.90
2022-08-08T06:19:17.421Z,0.80
2022-08-08T06:22:35.650Z,1.10
2022-08-08T06:26:35.074Z,1.35
2022-08-08T06:29:26.852Z,1.20
2022-08-08T06:32:50.213Z,1.00
2022-08-08T06:36:07.911Z,0.90
2022-08-08T06:39:14.852Z,0.95
2022-08-08T06:42:18.579Z,1.00
2022-08-08T06:45:24.855Z,1.00
2022-08-08T06:48:28.892Z,0.90
2022-08-08T06:51:52.461Z,0.93
2022-08-08T06:54:58.677Z,1.52
2022-08-08T06:58:04.152Z,0.90
2022-08-08T07:01:11.662Z,1.02
2022-08-08T07:04:51.973Z,0.80
2022-08-08T07:08:16.436Z,0.80
2022-08-08T07:11:22.836Z,1.02
2022-08-08T07:14:41.231Z,0.95
2022-08-08T07:18:00.753Z,0.80
2022-08-08T07:21:18.647Z,0.80
2022-08-08T07:24:34.054Z,0.90
2022-08-08T07:28:01.950Z,0.90
2022-08-08T07:31:05.963Z,1.08
2022-08-08T07:34:11.241Z,1.10
2022-08-08T07:37:55.806Z,1.30
2022-08-08T07:41:04.276Z,1.15
2022-08-08T07:44:37.032Z,1.08
2022-08-08T07:47:39.380Z,1.25
2022-08-08T07:50:44.336Z,1.17
2022-08-08T07:54:02.923Z,1.05
2022-08-08T07:57:17.344Z,1.25
2022-08-08T08:00:30.082Z,1.10
2022-08-08T08:04:02.507Z,1.05
2022-08-08T08:07:08.875Z,0.90
2022-08-08T08:10:18.150Z,1.00
2022-08-08T08:13:42.568Z,1.05
2022-08-08T08:17:00.990Z,1.10
2022-08-08T08:20:06.671Z,1.02
2022-08-08T08:23:13.742Z,0.93
2022-08-08T08:26:27.474Z,0.90
2022-08-08T08:29:32.490Z,1.00
2022-08-08T08:32:36.587Z,1.17
2022-08-08T08:36:20.454Z,0.80
2022-08-08T08:39:07.862Z,0.80
2022-08-08T08:42:32.101Z,0.80
2022-08-08T08:48:49.169Z,1.00
2022-08-08T08:51:54.443Z,0.80
2022-08-08T08:55:00.652Z,1.10
2022-08-08T08:58:07.834Z,1.10
2022-08-08T09:01:14.847Z,0.90
2022-08-08T09:04:30.304Z,0.90
2022-08-08T09:07:52.373Z,0.90
2022-08-08T09:11:08.322Z,1.12
2022-08-08T09:14:13.155Z,1.10
2022-08-08T09:17:19.096Z,1.33
2022-08-08T09:21:57.824Z,1.23
2022-08-08T09:24:04.105Z,1.15
2022-08-08T09:27:09.215Z,1.17
2022-08-08T09:30:22.236Z,1.10
2022-08-08T09:34:05.945Z,1.48
2022-08-08T09:37:59.038Z,1.23
2022-08-08T09:40:44.089Z,1.10
2022-08-08T09:44:15.147Z,1.33
2022-08-08T09:48:04.669Z,1.12
2022-08-08T09:50:50.310Z,1.20
2022-08-08T09:54:05.152Z,1.08
2022-08-08T09:57:19.141Z,1.08
2022-08-08T10:00:50.164Z,1.00
2022-08-08T10:03:56.301Z,4.65
2022-08-08T10:07:07.619Z,1.20
2022-08-08T10:10:12.219Z,1.17
2022-08-08T10:13:26.103Z,1.10
2022-08-08T10:16:39.624Z,1.10
2022-08-08T10:19:57.363Z,1.00
2022-08-08T10:23:02.352Z,1.07
2022-08-08T10:26:25.590Z,1.10
2022-08-08T10:29:44.130Z,1.10
2022-08-08T10:32:57.275Z,1.20
2022-08-08T10:36:20.638Z,1.17
2022-08-08T10:39:31.386Z,1.27
2022-08-08T10:43:04.884Z,1.23
2022-08-08T10:46:29.905Z,1.20
2022-08-08T10:50:01.492Z,1.40
2022-08-08T10:53:07.695Z,1.23
2022-08-08T10:56:27.909Z,1.50
2022-08-08T10:59:39.876Z,1.37
2022-08-08T11:02:44.599Z,1.42
2022-08-08T11:05:51.886Z,1.40
2022-08-08T11:09:20.003Z,1.30
2022-08-08T11:12:24.994Z,1.37
2022-08-08T11:15:31.960Z,1.20
2022-08-08T11:18:37.688Z,1.20
2022-08-08T11:21:55.377Z,1.50
2022-08-08T11:25:14.486Z,1.67
2022-08-08T11:28:25.559Z,1.30
2022-08-08T11:31:43.239Z,1.73
2022-08-08T11:35:10.544Z,1.35
2022-08-08T11:38:37.074Z,1.65
2022-08-08T11:41:43.257Z,1.40
2022-08-08T11:44:49.994Z,1.90
2022-08-08T11:48:04.760Z,2.20
2022-08-08T11:51:30.487Z,2.30
2022-08-08T11:54:38.274Z,2.00
2022-08-08T11:57:51.616Z,2.45
2022-08-08T12:01:01.257Z,2.25
2022-08-08T12:04:16.663Z,2.62
2022-08-08T12:07:21.323Z,2.37
2022-08-08T12:10:30.337Z,2.10
2022-08-08T12:14:02.857Z,2.42
2022-08-08T12:16:57.656Z,2.37
2022-08-08T12:20:00.506Z,2.30
2022-08-08T12:23:03.663Z,2.60
2022-08-08T12:26:17.238Z,2.78
2022-08-08T12:29:40.385Z,2.70
2022-08-08T12:32:48.086Z,2.72
2022-08-08T12:35:52.349Z,2.60
2022-08-08T12:38:55.940Z,2.60
2022-08-08T12:42:02.577Z,2.60
2022-08-08T12:45:54.973Z,2.80
2022-08-08T12:48:37.141Z,2.37
2022-08-08T12:51:58.444Z,2.45
2022-08-08T12:55:35.380Z,2.72
2022-08-08T12:58:50.147Z,3.03
2022-08-08T13:01:58.262Z,2.92
2022-08-08T13:05:05.774Z,3.40
2022-08-08T13:08:33.397Z,3.55
2022-08-08T13:12:18.129Z,3.20
2022-08-08T13:15:06.950Z,3.12
2022-08-08T13:18:13.570Z,3.40
2022-08-08T13:21:17.622Z,2.65
2022-08-08T13:24:39.525Z,2.65
2022-08-08T13:27:44.793Z,2.60
2022-08-08T13:30:50.561Z,2.40
2022-08-08T13:33:54.376Z,2.80
2022-08-08T13:36:57.439Z,2.78
2022-08-08T13:40:05.495Z,2.60
2022-08-08T13:43:08.663Z,2.28
2022-08-08T13:46:27.098Z,2.60
2022-08-08T13:50:35.131Z,2.85
2022-08-08T13:52:55.461Z,2.47
2022-08-08T13:56:01.530Z,2.45
2022-08-08T13:59:05.278Z,2.35
2022-08-08T14:02:21.111Z,2.40
2022-08-08T14:05:29.206Z,2.22
2022-08-08T14:08:45.837Z,2.10
2022-08-08T14:11:49.201Z,2.08
2022-08-08T14:14:52.159Z,1.62
2022-08-08T14:18:36.587Z,2.10
2022-08-08T14:21:39.597Z,1.67
2022-08-08T14:24:48.702Z,1.73
2022-08-08T14:27:59.623Z,1.77
2022-08-08T14:31:10.651Z,1.67
2022-08-08T14:34:19.594Z,1.73
2022-08-08T14:37:27.889Z,1.85
2022-08-08T14:40:50.321Z,2.00
2022-08-08T14:44:10.584Z,1.70
2022-08-08T14:47:16.906Z,1.80
2022-08-08T14:53:55.554Z,1.58
2022-08-08T14:56:59.404Z,1.60
2022-08-08T15:00:08.751Z,1.80
2022-08-08T15:03:14.793Z,1.50
2022-08-08T15:06:19.164Z,1.50
2022-08-08T15:09:25.745Z,1.37
2022-08-08T15:12:29.395Z,1.60
2022-08-08T15:16:02.823Z,1.20
2022-08-08T15:18:55.778Z,1.60
2022-08-08T15:21:58.811Z,1.75
2022-08-08T15:25:02.118Z,2.20
2022-08-08T15:28:34.665Z,1.95
2022-08-08T15:32:02.896Z,2.25
2022-08-08T15:35:04.262Z,2.45
2022-08-08T15:38:12.526Z,2.20
2022-08-08T15:41:17.496Z,2.20
2022-08-08T15:44:28.937Z,2.70
2022-08-08T15:47:32.168Z,2.53
2022-08-08T15:50:53.900Z,2.20
2022-08-08T15:53:56.843Z,2.40
2022-08-08T15:56:59.344Z,2.37
2022-08-08T16:00:10.971Z,2.40
2022-08-08T16:03:26.183Z,2.40
2022-08-08T16:06:32.617Z,2.35
2022-08-08T16:13:11.833Z,2.25
2022-08-08T16:13:15.518Z,1.90
2022-08-08T16:16:23.443Z,1.90
2022-08-08T16:19:30.274Z,2.00
2022-08-08T16:22:55.052Z,2.00
2022-08-08T16:26:03.288Z,1.83
2022-08-08T16:29:16.383Z,2.00
2022-08-08T16:32:21.811Z,1.95
2022-08-08T16:35:28.269Z,1.80
2022-08-08T16:38:32.503Z,2.10
2022-08-08T16:41:35.080Z,1.98
2022-08-08T16:44:37.993Z,1.58
2022-08-08T16:47:42.349Z,1.77
2022-08-08T16:50:46.665Z,1.70
2022-08-08T16:55:00.671Z,1.33
2022-08-08T16:57:27.943Z,1.58
2022-08-08T17:00:37.648Z,1.58
2022-08-08T17:04:01.173Z,1.52
2022-08-08T17:07:06.691Z,1.52
2022-08-08T17:10:19.085Z,1.90
2022-08-08T17:13:22.054Z,1.80
2022-08-08T17:16:30.876Z,1.70
2022-08-08T17:19:41.674Z,2.00
2022-08-08T17:22:44.862Z,2.30
2022-08-08T17:26:07.656Z,1.80
2022-08-08T17:29:15.158Z,1.80
2022-08-08T17:32:28.805Z,1.90
2022-08-08T17:39:05.248Z,2.28
2022-08-08T17:42:22.260Z,2.20
2022-08-08T17:45:25.643Z,2.87
2022-08-08T17:48:31.600Z,2.10
2022-08-08T17:51:34.394Z,2.83
2022-08-08T17:54:37.430Z,2.87
2022-08-08T17:57:41.807Z,2.83
2022-08-08T18:00:47.582Z,2.80
2022-08-08T18:03:58.999Z,3.30
2022-08-08T18:07:05.906Z,2.92
2022-08-08T18:10:31.314Z,4.90
2022-08-08T18:13:34.934Z,4.12
2022-08-08T18:16:52.673Z,3.67
2022-08-08T18:20:44.294Z,4.20
2022-08-08T18:23:20.075Z,4.15
2022-08-08T18:26:22.708Z,4.37
2022-08-08T18:29:33.276Z,4.85
2022-08-08T18:32:36.803Z,4.53
2022-08-08T18:35:48.401Z,4.55
2022-08-08T18:38:52.085Z,4.40
2022-08-08T18:42:03.213Z,4.50
2022-08-08T18:45:09.250Z,3.92
2022-08-08T18:48:30.253Z,3.97
2022-08-08T18:51:53.422Z,3.70
2022-08-08T18:55:00.612Z,3.37
2022-08-08T18:58:12.199Z,3.58
2022-08-08T19:02:25.771Z,3.25
2022-08-08T19:04:40.119Z,3.40
2022-08-08T19:07:52.171Z,3.37
2022-08-08T19:10:56.628Z,3.15
2022-08-08T19:14:00.237Z,2.70
2022-08-08T19:17:03.675Z,3.33
2022-08-08T19:20:07.950Z,3.47
2022-08-08T19:23:12.311Z,3.28
2022-08-08T19:26:29.459Z,3.12
2022-08-08T19:29:40.543Z,2.92
2022-08-08T19:32:43.734Z,3.28
2022-08-08T19:36:08.932Z,4.32
2022-08-08T19:39:10.692Z,3.67
2022-08-08T19:42:13.798Z,3.53
2022-08-08T19:45:57.464Z,3.80
2022-08-08T19:48:40.674Z,3.58
2022-08-08T19:51:45.538Z,3.67
2022-08-08T19:54:51.204Z,3.53
2022-08-08T19:57:56.525Z,3.80
2022-08-08T20:01:01.264Z,3.80
2022-08-08T20:04:04.957Z,3.28
2022-08-08T20:08:27.819Z,3.12
2022-08-08T20:10:35.985Z,3.15
2022-08-08T20:14:32.141Z,3.40
2022-08-08T20:17:02.119Z,3.40
2022-08-08T20:20:09.974Z,3.35
2022-08-08T20:23:16.105Z,2.90
2022-08-08T20:26:18.844Z,3.08
2022-08-08T20:29:55.764Z,3.37
2022-08-08T20:32:54.351Z,2.85
2022-08-08T20:36:06.468Z,3.33
2022-08-08T20:39:11.286Z,3.40
2022-08-08T20:42:14.355Z,2.67
2022-08-08T20:45:16.977Z,2.95
2022-08-08T20:48:40.979Z,3.37
2022-08-08T20:51:43.621Z,3.00
2022-08-08T20:54:46.572Z,2.78
2022-08-08T20:57:51.316Z,3.10
2022-08-08T21:00:54.450Z,3.05
2022-08-08T21:04:01.498Z,2.95
2022-08-08T21:07:08.156Z,2.90
2022-08-08T21:10:12.796Z,3.03
2022-08-08T21:13:16.720Z,2.80
2022-08-08T21:16:27.112Z,2.90
2022-08-08T21:19:33.920Z,2.37
2022-08-08T21:22:48.660Z,2.92
2022-08-08T21:25:53.435Z,2.42
2022-08-08T21:29:00.685Z,2.30
2022-08-08T21:32:07.841Z,2.20
2022-08-08T21:36:14.098Z,2.70
2022-08-08T21:38:45.725Z,2.47
2022-08-08T21:41:51.265Z,2.40
2022-08-08T21:45:44.545Z,2.30
2022-08-08T21:48:35.240Z,2.10
2022-08-08T21:54:22.983Z,2.30
2022-08-08T21:55:24.038Z,2.33
2022-08-08T21:58:37.282Z,2.25
2022-08-08T22:01:41.995Z,2.20
2022-08-08T22:04:45.136Z,2.10
2022-08-08T22:07:49.165Z,2.40
2022-08-08T22:10:54.249Z,2.10
2022-08-08T22:13:57.284Z,2.17
2022-08-08T22:17:01.671Z,2.40
2022-08-08T22:20:10.454Z,2.45
2022-08-08T22:23:16.119Z,2.62
2022-08-08T22:26:29.514Z,2.10
2022-08-08T22:29:59.574Z,2.50
2022-08-08T22:32:56.327Z,2.42
2022-08-08T22:36:04.510Z,2.47
2022-08-08T22:39:19.222Z,2.53
2022-08-08T22:42:27.498Z,2.65
2022-08-08T22:45:37.676Z,2.58
2022-08-08T22:48:40.468Z,3.00
2022-08-08T22:51:46.703Z,2.60
2022-08-08T22:54:58.792Z,2.92
2022-08-08T22:58:08.036Z,2.53
2022-08-08T23:01:26.642Z,2.87
2022-08-08T23:04:34.747Z,2.83
2022-08-08T23:07:51.786Z,2.25
2022-08-08T23:11:06.241Z,2.95
2022-08-08T23:14:20.789Z,2.95
2022-08-08T23:17:24.951Z,3.00
2022-08-08T23:20:33.165Z,3.03
2022-08-08T23:23:48.691Z,3.12
2022-08-08T23:26:58.775Z,2.90
2022-08-08T23:30:03.071Z,2.80
2022-08-08T23:33:19.002Z,3.30
2022-08-08T23:36:26.091Z,3.15
2022-08-08T23:39:32.321Z,3.10
2022-08-08T23:42:45.238Z,3.05
2022-08-08T23:49:07.326Z,3.08
2022-08-08T23:49:18.506Z,3.17
2022-08-08T23:52:23.389Z,3.12
2022-08-08T23:55:28.266Z,3.67
2022-08-08T23:58:38.062Z,3.08
